sensor_id;sensor_type;location;lat;lon;timestamp;pressure;altitude;pressure_sealevel;temperature;humidity
73063;BME280;61230;46.328;19.972;2023-05-19T00:01:23;101103.84;;;12.55;100.00
73063;BME280;61230;46.328;19.972;2023-05-19T00:03:53;101143.62;;;12.73;100.00
73063;BME280;61230;46.328;19.972;2023-05-19T00:06:23;101146.25;;;12.73;100.00
73063;BME280;61230;46.328;19.972;2023-05-19T00:09:07;101149.72;;;12.63;100.00
73063;BME280;61230;46.328;19.972;2023-05-19T00:11:37;101147.22;;;12.62;100.00
73063;BME280;61230;46.328;19.972;2023-05-19T00:14:07;101144.16;;;12.57;100.00
73063;BME280;61230;46.328;19.972;2023-05-19T00:16:36;101153.34;;;12.62;100.00
73063;BME280;61230;46.328;19.972;2023-05-19T00:19:05;101148.47;;;12.58;100.00
73063;BME280;61230;46.328;19.972;2023-05-19T00:21:33;101102.97;;;12.26;100.00
73063;BME280;61230;46.328;19.972;2023-05-19T00:24:00;101141.50;;;12.47;100.00
73063;BME280;61230;46.328;19.972;2023-05-19T00:26:28;101139.69;;;12.48;100.00
73063;BME280;61230;46.328;19.972;2023-05-19T00:28:57;101127.84;;;12.33;100.00
73063;BME280;61230;46.328;19.972;2023-05-19T00:31:25;101136.44;;;12.35;100.00
73063;BME280;61230;46.328;19.972;2023-05-19T00:33:52;101137.97;;;12.28;100.00
73063;BME280;61230;46.328;19.972;2023-05-19T00:36:20;101144.91;;;12.29;100.00
73063;BME280;61230;46.328;19.972;2023-05-19T00:38:48;101138.50;;;12.22;100.00
73063;BME280;61230;46.328;19.972;2023-05-19T00:41:17;101146.41;;;12.22;100.00
73063;BME280;61230;46.328;19.972;2023-05-19T00:43:45;101143.19;;;12.18;100.00
73063;BME280;61230;46.328;19.972;2023-05-19T00:46:12;101149.31;;;12.19;100.00
73063;BME280;61230;46.328;19.972;2023-05-19T00:48:40;101147.19;;;12.13;100.00
73063;BME280;61230;46.328;19.972;2023-05-19T00:51:12;101146.38;;;12.12;100.00
73063;BME280;61230;46.328;19.972;2023-05-19T00:53:45;101147.34;;;12.11;100.00
73063;BME280;61230;46.328;19.972;2023-05-19T00:56:16;101139.97;;;12.05;100.00
73063;BME280;61230;46.328;19.972;2023-05-19T00:58:44;101094.56;;;11.71;100.00
73063;BME280;61230;46.328;19.972;2023-05-19T01:01:12;101137.59;;;12.02;100.00
73063;BME280;61230;46.328;19.972;2023-05-19T01:03:44;101140.62;;;11.97;100.00
73063;BME280;61230;46.328;19.972;2023-05-19T01:06:13;101147.81;;;11.95;100.00
73063;BME280;61230;46.328;19.972;2023-05-19T01:08:41;101152.97;;;11.97;100.00
73063;BME280;61230;46.328;19.972;2023-05-19T01:11:09;101149.75;;;11.93;100.00
73063;BME280;61230;46.328;19.972;2023-05-19T01:13:37;101142.09;;;11.90;100.00
73063;BME280;61230;46.328;19.972;2023-05-19T01:16:13;101139.63;;;11.89;100.00
73063;BME280;61230;46.328;19.972;2023-05-19T01:19:00;101141.69;;;11.85;100.00
73063;BME280;61230;46.328;19.972;2023-05-19T01:27:23;101141.50;;;11.77;100.00
73063;BME280;61230;46.328;19.972;2023-05-19T01:32:52;101095.66;;;11.48;100.00
73063;BME280;61230;46.328;19.972;2023-05-19T01:35:24;101142.72;;;11.73;100.00
73063;BME280;61230;46.328;19.972;2023-05-19T01:37:54;101143.81;;;11.71;100.00
73063;BME280;61230;46.328;19.972;2023-05-19T01:40:24;101142.34;;;11.67;100.00
73063;BME280;61230;46.328;19.972;2023-05-19T01:42:55;101151.25;;;11.66;100.00
73063;BME280;61230;46.328;19.972;2023-05-19T01:45:27;101111.28;;;11.40;100.00
73063;BME280;61230;46.328;19.972;2023-05-19T01:47:57;101150.91;;;11.59;100.00
73063;BME280;61230;46.328;19.972;2023-05-19T01:50:26;101159.78;;;11.58;100.00
73063;BME280;61230;46.328;19.972;2023-05-19T01:52:54;101152.84;;;11.57;100.00
73063;BME280;61230;46.328;19.972;2023-05-19T01:55:22;101143.34;;;11.45;100.00
73063;BME280;61230;46.328;19.972;2023-05-19T02:01:37;101129.97;;;11.37;100.00
73063;BME280;61230;46.328;19.972;2023-05-19T02:04:23;101133.44;;;11.37;100.00
73063;BME280;61230;46.328;19.972;2023-05-19T02:07:07;101136.16;;;11.26;100.00
73063;BME280;61230;46.328;19.972;2023-05-19T02:10:04;101125.72;;;11.25;100.00
73063;BME280;61230;46.328;19.972;2023-05-19T02:12:36;101130.88;;;11.26;100.00
73063;BME280;61230;46.328;19.972;2023-05-19T02:17:42;101120.25;;;11.17;100.00
73063;BME280;61230;46.328;19.972;2023-05-19T02:20:15;101132.00;;;11.13;100.00
73063;BME280;61230;46.328;19.972;2023-05-19T02:22:43;101135.16;;;11.07;100.00
73063;BME280;61230;46.328;19.972;2023-05-19T02:25:12;101127.63;;;11.02;100.00
73063;BME280;61230;46.328;19.972;2023-05-19T02:27:41;101129.41;;;11.02;100.00
73063;BME280;61230;46.328;19.972;2023-05-19T02:30:09;101101.59;;;10.88;100.00
73063;BME280;61230;46.328;19.972;2023-05-19T02:32:36;101117.47;;;10.98;100.00
73063;BME280;61230;46.328;19.972;2023-05-19T02:35:04;101129.66;;;10.98;100.00
73063;BME280;61230;46.328;19.972;2023-05-19T02:37:32;101123.00;;;10.94;100.00
73063;BME280;61230;46.328;19.972;2023-05-19T02:40:01;101130.44;;;10.89;100.00
73063;BME280;61230;46.328;19.972;2023-05-19T02:42:29;101129.25;;;10.82;100.00
73063;BME280;61230;46.328;19.972;2023-05-19T02:44:58;101130.69;;;10.86;100.00
73063;BME280;61230;46.328;19.972;2023-05-19T02:47:26;101133.78;;;10.91;100.00
73063;BME280;61230;46.328;19.972;2023-05-19T02:49:54;101124.13;;;10.81;100.00
73063;BME280;61230;46.328;19.972;2023-05-19T02:52:22;101127.59;;;10.70;100.00
73063;BME280;61230;46.328;19.972;2023-05-19T02:54:49;101124.03;;;10.71;100.00
73063;BME280;61230;46.328;19.972;2023-05-19T02:57:17;101132.31;;;10.67;100.00
73063;BME280;61230;46.328;19.972;2023-05-19T02:59:45;101126.91;;;10.68;100.00
73063;BME280;61230;46.328;19.972;2023-05-19T03:02:13;101129.91;;;10.64;100.00
73063;BME280;61230;46.328;19.972;2023-05-19T03:04:40;101136.84;;;10.65;100.00
73063;BME280;61230;46.328;19.972;2023-05-19T03:07:09;101132.56;;;10.53;100.00
73063;BME280;61230;46.328;19.972;2023-05-19T03:09:37;101136.50;;;10.58;100.00
73063;BME280;61230;46.328;19.972;2023-05-19T03:12:05;101130.72;;;10.64;100.00
73063;BME280;61230;46.328;19.972;2023-05-19T03:14:34;101141.25;;;10.64;100.00
73063;BME280;61230;46.328;19.972;2023-05-19T03:17:04;101137.22;;;10.60;100.00
73063;BME280;61230;46.328;19.972;2023-05-19T03:19:34;101125.84;;;10.60;100.00
73063;BME280;61230;46.328;19.972;2023-05-19T03:22:02;101122.13;;;10.62;100.00
73063;BME280;61230;46.328;19.972;2023-05-19T03:24:30;101127.28;;;10.64;100.00
73063;BME280;61230;46.328;19.972;2023-05-19T03:26:58;101128.84;;;10.66;100.00
73063;BME280;61230;46.328;19.972;2023-05-19T03:29:25;101133.00;;;10.69;100.00
73063;BME280;61230;46.328;19.972;2023-05-19T03:31:53;101126.19;;;10.66;100.00
73063;BME280;61230;46.328;19.972;2023-05-19T03:34:21;101124.41;;;10.67;100.00
73063;BME280;61230;46.328;19.972;2023-05-19T03:36:49;101126.91;;;10.68;100.00
73063;BME280;61230;46.328;19.972;2023-05-19T03:39:17;101142.59;;;10.70;100.00
73063;BME280;61230;46.328;19.972;2023-05-19T03:41:45;101138.97;;;10.71;100.00
73063;BME280;61230;46.328;19.972;2023-05-19T03:44:12;101129.28;;;10.71;100.00
73063;BME280;61230;46.328;19.972;2023-05-19T03:46:40;101134.41;;;10.73;100.00
73063;BME280;61230;46.328;19.972;2023-05-19T03:49:08;101135.50;;;10.70;100.00
73063;BME280;61230;46.328;19.972;2023-05-19T03:51:37;101135.25;;;10.73;100.00
73063;BME280;61230;46.328;19.972;2023-05-19T03:54:05;101116.16;;;10.60;100.00
73063;BME280;61230;46.328;19.972;2023-05-19T03:56:37;101137.53;;;10.78;100.00
73063;BME280;61230;46.328;19.972;2023-05-19T03:59:07;101133.84;;;10.69;100.00
73063;BME280;61230;46.328;19.972;2023-05-19T04:01:36;101143.62;;;10.78;100.00
73063;BME280;61230;46.328;19.972;2023-05-19T04:04:04;101126.78;;;10.70;100.00
73063;BME280;61230;46.328;19.972;2023-05-19T04:06:32;101146.03;;;10.70;100.00
73063;BME280;61230;46.328;19.972;2023-05-19T04:09:01;101146.75;;;10.72;100.00
73063;BME280;61230;46.328;19.972;2023-05-19T04:11:29;101102.41;;;10.57;100.00
73063;BME280;61230;46.328;19.972;2023-05-19T04:13:57;101147.28;;;10.87;100.00
73063;BME280;61230;46.328;19.972;2023-05-19T04:16:24;101150.28;;;10.93;100.00
73063;BME280;61230;46.328;19.972;2023-05-19T04:18:52;101144.66;;;10.87;100.00
73063;BME280;61230;46.328;19.972;2023-05-19T04:21:20;101142.88;;;10.87;100.00
73063;BME280;61230;46.328;19.972;2023-05-19T04:23:48;101104.41;;;10.75;100.00
73063;BME280;61230;46.328;19.972;2023-05-19T04:26:16;101145.75;;;11.16;100.00
73063;BME280;61230;46.328;19.972;2023-05-19T04:28:45;101154.03;;;11.12;100.00
73063;BME280;61230;46.328;19.972;2023-05-19T04:31:14;101155.13;;;11.09;100.00
73063;BME280;61230;46.328;19.972;2023-05-19T04:33:42;101157.06;;;11.28;100.00
73063;BME280;61230;46.328;19.972;2023-05-19T04:36:10;101141.53;;;11.25;100.00
73063;BME280;61230;46.328;19.972;2023-05-19T04:38:38;101158.13;;;11.36;100.00
73063;BME280;61230;46.328;19.972;2023-05-19T04:41:07;101149.44;;;11.45;100.00
73063;BME280;61230;46.328;19.972;2023-05-19T04:43:38;101157.28;;;11.57;100.00
73063;BME280;61230;46.328;19.972;2023-05-19T04:46:09;101159.78;;;11.69;100.00
73063;BME280;61230;46.328;19.972;2023-05-19T04:48:41;101148.41;;;11.37;100.00
73063;BME280;61230;46.328;19.972;2023-05-19T04:51:09;101156.91;;;11.40;100.00
73063;BME280;61230;46.328;19.972;2023-05-19T04:53:37;101159.22;;;11.34;100.00
73063;BME280;61230;46.328;19.972;2023-05-19T04:56:08;101149.19;;;11.48;100.00
73063;BME280;61230;46.328;19.972;2023-05-19T04:58:36;101143.06;;;11.27;100.00
73063;BME280;61230;46.328;19.972;2023-05-19T05:01:07;101145.87;;;11.46;100.00
73063;BME280;61230;46.328;19.972;2023-05-19T05:03:36;101146.84;;;11.55;100.00
73063;BME280;61230;46.328;19.972;2023-05-19T05:06:04;101152.78;;;11.68;100.00
73063;BME280;61230;46.328;19.972;2023-05-19T05:08:32;101152.91;;;11.87;100.00
73063;BME280;61230;46.328;19.972;2023-05-19T05:11:00;101156.06;;;11.81;100.00
73063;BME280;61230;46.328;19.972;2023-05-19T05:13:28;101167.47;;;11.82;100.00
73063;BME280;61230;46.328;19.972;2023-05-19T05:15:56;101172.56;;;12.04;100.00
73063;BME280;61230;46.328;19.972;2023-05-19T05:18:25;101182.50;;;11.70;100.00
73063;BME280;61230;46.328;19.972;2023-05-19T05:20:53;101185.00;;;11.92;100.00
73063;BME280;61230;46.328;19.972;2023-05-19T05:23:22;101183.72;;;11.87;100.00
73063;BME280;61230;46.328;19.972;2023-05-19T05:25:50;101166.81;;;12.20;100.00
73063;BME280;61230;46.328;19.972;2023-05-19T05:28:18;101168.56;;;12.40;100.00
73063;BME280;61230;46.328;19.972;2023-05-19T05:30:46;101178.66;;;12.25;100.00
73063;BME280;61230;46.328;19.972;2023-05-19T05:33:14;101177.44;;;12.39;100.00
73063;BME280;61230;46.328;19.972;2023-05-19T05:35:41;101185.72;;;12.25;100.00
73063;BME280;61230;46.328;19.972;2023-05-19T05:38:09;101196.44;;;12.33;100.00
73063;BME280;61230;46.328;19.972;2023-05-19T05:40:38;101203.16;;;12.37;100.00
73063;BME280;61230;46.328;19.972;2023-05-19T05:43:06;101197.81;;;12.67;100.00
73063;BME280;61230;46.328;19.972;2023-05-19T05:45:34;101199.19;;;12.61;100.00
73063;BME280;61230;46.328;19.972;2023-05-19T05:48:03;101192.56;;;12.77;100.00
73063;BME280;61230;46.328;19.972;2023-05-19T05:50:31;101202.94;;;12.59;100.00
73063;BME280;61230;46.328;19.972;2023-05-19T05:53:00;101197.06;;;13.05;100.00
73063;BME280;61230;46.328;19.972;2023-05-19T05:55:28;101198.00;;;12.94;100.00
73063;BME280;61230;46.328;19.972;2023-05-19T05:57:58;101204.78;;;12.78;100.00
73063;BME280;61230;46.328;19.972;2023-05-19T06:00:28;101216.78;;;12.91;100.00
73063;BME280;61230;46.328;19.972;2023-05-19T06:02:57;101210.41;;;13.03;100.00
73063;BME280;61230;46.328;19.972;2023-05-19T06:05:25;101221.84;;;13.23;100.00
73063;BME280;61230;46.328;19.972;2023-05-19T06:07:53;101186.75;;;12.83;100.00
73063;BME280;61230;46.328;19.972;2023-05-19T06:10:22;101178.84;;;13.02;100.00
73063;BME280;61230;46.328;19.972;2023-05-19T06:12:50;101186.63;;;13.03;100.00
73063;BME280;61230;46.328;19.972;2023-05-19T06:15:18;101228.84;;;13.34;100.00
73063;BME280;61230;46.328;19.972;2023-05-19T06:17:45;101230.47;;;13.35;100.00
73063;BME280;61230;46.328;19.972;2023-05-19T06:20:13;101234.09;;;13.72;100.00
73063;BME280;61230;46.328;19.972;2023-05-19T06:22:41;101234.13;;;13.34;100.00
73063;BME280;61230;46.328;19.972;2023-05-19T06:25:09;101193.88;;;13.40;100.00
73063;BME280;61230;46.328;19.972;2023-05-19T06:27:36;101237.59;;;13.72;100.00
73063;BME280;61230;46.328;19.972;2023-05-19T06:30:04;101236.31;;;13.86;100.00
73063;BME280;61230;46.328;19.972;2023-05-19T06:32:35;101237.72;;;13.80;100.00
73063;BME280;61230;46.328;19.972;2023-05-19T06:35:03;101236.38;;;14.13;100.00
73063;BME280;61230;46.328;19.972;2023-05-19T06:37:31;101230.94;;;14.24;99.71
73063;BME280;61230;46.328;19.972;2023-05-19T06:39:59;101193.25;;;14.30;99.23
73063;BME280;61230;46.328;19.972;2023-05-19T06:42:27;101235.53;;;14.59;98.60
73063;BME280;61230;46.328;19.972;2023-05-19T06:44:56;101229.84;;;14.08;98.99
73063;BME280;61230;46.328;19.972;2023-05-19T06:47:26;101241.28;;;14.55;97.96
73063;BME280;61230;46.328;19.972;2023-05-19T06:49:53;101234.63;;;14.78;97.05
73063;BME280;61230;46.328;19.972;2023-05-19T06:52:22;101231.34;;;15.11;97.38
73063;BME280;61230;46.328;19.972;2023-05-19T06:54:50;101239.47;;;15.10;96.85
73063;BME280;61230;46.328;19.972;2023-05-19T06:57:17;101232.53;;;14.99;97.57
73063;BME280;61230;46.328;19.972;2023-05-19T06:59:45;101235.91;;;15.01;95.11
73063;BME280;61230;46.328;19.972;2023-05-19T07:02:13;101251.13;;;14.72;96.42
73063;BME280;61230;46.328;19.972;2023-05-19T07:04:41;101262.91;;;14.87;97.63
73063;BME280;61230;46.328;19.972;2023-05-19T07:07:10;101254.75;;;14.98;97.34
73063;BME280;61230;46.328;19.972;2023-05-19T07:09:38;101218.06;;;14.39;95.80
73063;BME280;61230;46.328;19.972;2023-05-19T07:12:07;101249.03;;;14.93;95.98
73063;BME280;61230;46.328;19.972;2023-05-19T07:14:34;101252.34;;;15.22;95.69
73063;BME280;61230;46.328;19.972;2023-05-19T07:17:04;101256.66;;;15.23;96.33
73063;BME280;61230;46.328;19.972;2023-05-19T07:19:31;101248.56;;;15.25;96.18
73063;BME280;61230;46.328;19.972;2023-05-19T07:21:59;101234.94;;;15.37;95.74
73063;BME280;61230;46.328;19.972;2023-05-19T07:24:27;101245.91;;;15.42;96.01
73063;BME280;61230;46.328;19.972;2023-05-19T07:26:55;101244.31;;;15.85;94.13
73063;BME280;61230;46.328;19.972;2023-05-19T07:29:24;101250.47;;;15.68;94.51
73063;BME280;61230;46.328;19.972;2023-05-19T07:31:52;101242.72;;;15.92;93.17
73063;BME280;61230;46.328;19.972;2023-05-19T07:34:24;101249.09;;;15.46;92.74
73063;BME280;61230;46.328;19.972;2023-05-19T07:36:52;101231.50;;;15.45;94.82
73063;BME280;61230;46.328;19.972;2023-05-19T07:39:19;101247.37;;;15.98;93.48
73063;BME280;61230;46.328;19.972;2023-05-19T07:41:47;101243.03;;;15.89;91.71
73063;BME280;61230;46.328;19.972;2023-05-19T07:44:19;101234.78;;;15.74;90.75
73063;BME280;61230;46.328;19.972;2023-05-19T07:46:47;101231.22;;;16.09;91.88
73063;BME280;61230;46.328;19.972;2023-05-19T07:49:14;101238.28;;;15.75;92.11
73063;BME280;61230;46.328;19.972;2023-05-19T07:51:42;101222.69;;;16.23;92.50
73063;BME280;61230;46.328;19.972;2023-05-19T07:54:09;101225.97;;;16.17;91.55
73063;BME280;61230;46.328;19.972;2023-05-19T07:56:37;101215.06;;;16.54;89.34
73063;BME280;61230;46.328;19.972;2023-05-19T07:59:05;101219.38;;;16.29;89.21
73063;BME280;61230;46.328;19.972;2023-05-19T08:01:34;101174.34;;;15.86;90.57
73063;BME280;61230;46.328;19.972;2023-05-19T08:04:02;101205.28;;;16.54;91.75
73063;BME280;61230;46.328;19.972;2023-05-19T08:06:30;101212.69;;;16.93;90.23
73063;BME280;61230;46.328;19.972;2023-05-19T08:08:58;101172.00;;;17.00;88.84
73063;BME280;61230;46.328;19.972;2023-05-19T08:11:26;101211.34;;;16.89;87.48
73063;BME280;61230;46.328;19.972;2023-05-19T08:13:53;101220.41;;;16.62;86.49
73063;BME280;61230;46.328;19.972;2023-05-19T08:16:21;101217.81;;;16.86;87.71
73063;BME280;61230;46.328;19.972;2023-05-19T08:18:49;101211.84;;;16.84;87.86
73063;BME280;61230;46.328;19.972;2023-05-19T08:21:16;101212.78;;;17.25;87.98
73063;BME280;61230;46.328;19.972;2023-05-19T08:23:44;101222.34;;;16.94;87.69
73063;BME280;61230;46.328;19.972;2023-05-19T08:26:12;101222.91;;;17.46;86.33
73063;BME280;61230;46.328;19.972;2023-05-19T08:28:40;101217.78;;;17.36;85.25
73063;BME280;61230;46.328;19.972;2023-05-19T08:31:07;101220.44;;;17.68;86.94
73063;BME280;61230;46.328;19.972;2023-05-19T08:33:35;101216.97;;;17.76;87.28
73063;BME280;61230;46.328;19.972;2023-05-19T08:36:03;101212.41;;;18.09;84.38
73063;BME280;61230;46.328;19.972;2023-05-19T08:38:31;101217.47;;;17.63;83.68
73063;BME280;61230;46.328;19.972;2023-05-19T08:40:59;101203.50;;;17.69;85.73
73063;BME280;61230;46.328;19.972;2023-05-19T08:43:26;101202.16;;;17.65;84.96
73063;BME280;61230;46.328;19.972;2023-05-19T08:45:54;101200.59;;;18.11;84.61
73063;BME280;61230;46.328;19.972;2023-05-19T08:48:22;101172.87;;;17.82;83.25
73063;BME280;61230;46.328;19.972;2023-05-19T08:51:15;101199.31;;;17.83;85.07
73063;BME280;61230;46.328;19.972;2023-05-19T08:53:49;101197.03;;;18.35;83.91
73063;BME280;61230;46.328;19.972;2023-05-19T08:56:20;101190.88;;;18.73;82.83
73063;BME280;61230;46.328;19.972;2023-05-19T08:58:50;101202.84;;;18.38;85.95
73063;BME280;61230;46.328;19.972;2023-05-19T09:01:18;101192.75;;;18.73;82.89
73063;BME280;61230;46.328;19.972;2023-05-19T09:03:47;101201.75;;;18.09;82.97
73063;BME280;61230;46.328;19.972;2023-05-19T09:06:16;101202.50;;;18.50;83.66
73063;BME280;61230;46.328;19.972;2023-05-19T09:08:44;101199.91;;;18.72;83.20
73063;BME280;61230;46.328;19.972;2023-05-19T09:11:13;101213.97;;;18.42;82.56
73063;BME280;61230;46.328;19.972;2023-05-19T09:13:41;101202.25;;;18.20;81.35
73063;BME280;61230;46.328;19.972;2023-05-19T09:16:09;101206.19;;;18.41;82.74
73063;BME280;61230;46.328;19.972;2023-05-19T09:18:38;101200.19;;;18.38;82.86
73063;BME280;61230;46.328;19.972;2023-05-19T09:21:07;101198.47;;;18.46;83.27
73063;BME280;61230;46.328;19.972;2023-05-19T09:23:37;101194.31;;;18.51;83.07
73063;BME280;61230;46.328;19.972;2023-05-19T09:26:04;101190.94;;;18.65;81.93
73063;BME280;61230;46.328;19.972;2023-05-19T09:28:35;101192.91;;;18.71;82.01
73063;BME280;61230;46.328;19.972;2023-05-19T09:31:08;101159.66;;;18.90;81.04
73063;BME280;61230;46.328;19.972;2023-05-19T09:33:39;101201.34;;;18.44;82.55
73063;BME280;61230;46.328;19.972;2023-05-19T09:36:10;101151.19;;;18.39;81.98
73063;BME280;61230;46.328;19.972;2023-05-19T09:38:39;101191.88;;;18.80;82.15
73063;BME280;61230;46.328;19.972;2023-05-19T09:41:07;101191.62;;;19.21;80.44
73063;BME280;61230;46.328;19.972;2023-05-19T09:43:35;101190.72;;;19.28;80.32
73063;BME280;61230;46.328;19.972;2023-05-19T09:46:08;101186.94;;;19.45;79.10
73063;BME280;61230;46.328;19.972;2023-05-19T09:48:40;101175.25;;;20.13;79.37
73063;BME280;61230;46.328;19.972;2023-05-19T09:51:09;101180.78;;;19.82;78.14
73063;BME280;61230;46.328;19.972;2023-05-19T09:53:37;101145.50;;;19.72;78.93
73063;BME280;61230;46.328;19.972;2023-05-19T09:56:07;101139.81;;;19.15;78.62
73063;BME280;61230;46.328;19.972;2023-05-19T09:58:35;101170.19;;;19.06;79.75
73063;BME280;61230;46.328;19.972;2023-05-19T10:01:03;101168.91;;;19.47;80.07
73063;BME280;61230;46.328;19.972;2023-05-19T10:03:32;101172.16;;;19.35;78.59
73063;BME280;61230;46.328;19.972;2023-05-19T10:06:00;101137.78;;;19.17;78.69
73063;BME280;61230;46.328;19.972;2023-05-19T10:08:31;101166.91;;;19.27;77.49
73063;BME280;61230;46.328;19.972;2023-05-19T10:11:00;101158.38;;;19.98;76.79
73063;BME280;61230;46.328;19.972;2023-05-19T10:13:28;101160.25;;;19.97;76.79
73063;BME280;61230;46.328;19.972;2023-05-19T10:15:57;101161.25;;;19.96;76.96
73063;BME280;61230;46.328;19.972;2023-05-19T10:18:26;101155.19;;;20.02;78.77
73063;BME280;61230;46.328;19.972;2023-05-19T10:20:56;101152.34;;;19.89;79.13
73063;BME280;61230;46.328;19.972;2023-05-19T10:23:25;101150.31;;;19.91;78.46
73063;BME280;61230;46.328;19.972;2023-05-19T10:25:56;101143.31;;;19.53;78.68
73063;BME280;61230;46.328;19.972;2023-05-19T10:28:29;101144.16;;;19.31;80.25
73063;BME280;61230;46.328;19.972;2023-05-19T10:31:01;101143.94;;;19.18;80.94
73063;BME280;61230;46.328;19.972;2023-05-19T10:33:52;101146.25;;;18.98;81.98
73063;BME280;61230;46.328;19.972;2023-05-19T10:39:10;101138.34;;;19.27;81.89
73063;BME280;61230;46.328;19.972;2023-05-19T10:47:00;101141.63;;;19.37;82.44
73063;BME280;61230;46.328;19.972;2023-05-19T10:49:34;101145.72;;;19.03;84.06
73063;BME280;61230;46.328;19.972;2023-05-19T10:52:02;101140.59;;;19.16;83.47
73063;BME280;61230;46.328;19.972;2023-05-19T10:54:43;101134.47;;;19.30;82.17
73063;BME280;61230;46.328;19.972;2023-05-19T10:57:14;101135.09;;;19.17;83.21
73063;BME280;61230;46.328;19.972;2023-05-19T10:59:45;101132.37;;;19.48;81.92
73063;BME280;61230;46.328;19.972;2023-05-19T11:02:37;101136.53;;;19.65;80.93
73063;BME280;61230;46.328;19.972;2023-05-19T11:05:15;101135.91;;;20.07;81.08
73063;BME280;61230;46.328;19.972;2023-05-19T11:07:58;101116.94;;;20.17;80.26
73063;BME280;61230;46.328;19.972;2023-05-19T11:10:32;101119.69;;;20.38;79.65
73063;BME280;61230;46.328;19.972;2023-05-19T11:13:00;101079.62;;;20.23;78.63
73063;BME280;61230;46.328;19.972;2023-05-19T11:15:35;101113.22;;;20.47;78.12
73063;BME280;61230;46.328;19.972;2023-05-19T11:18:06;101113.66;;;20.86;77.79
73063;BME280;61230;46.328;19.972;2023-05-19T11:20:37;101105.13;;;20.97;76.67
73063;BME280;61230;46.328;19.972;2023-05-19T11:23:07;101107.97;;;20.75;75.68
73063;BME280;61230;46.328;19.972;2023-05-19T11:25:43;101105.00;;;20.63;77.29
73063;BME280;61230;46.328;19.972;2023-05-19T11:28:11;101104.78;;;20.64;77.08
73063;BME280;61230;46.328;19.972;2023-05-19T11:30:41;101103.69;;;20.59;77.18
73063;BME280;61230;46.328;19.972;2023-05-19T11:33:10;101105.25;;;20.89;76.85
73063;BME280;61230;46.328;19.972;2023-05-19T11:35:40;101105.75;;;20.78;76.96
73063;BME280;61230;46.328;19.972;2023-05-19T11:38:09;101093.75;;;21.65;73.80
73063;BME280;61230;46.328;19.972;2023-05-19T11:40:37;101101.37;;;21.34;72.97
73063;BME280;61230;46.328;19.972;2023-05-19T11:43:05;101097.47;;;21.64;73.81
73063;BME280;61230;46.328;19.972;2023-05-19T11:45:33;101098.81;;;21.26;74.12
73063;BME280;61230;46.328;19.972;2023-05-19T11:48:01;101076.16;;;21.22;74.70
73063;BME280;61230;46.328;19.972;2023-05-19T11:50:31;101091.28;;;21.64;76.22
73063;BME280;61230;46.328;19.972;2023-05-19T11:52:59;101086.97;;;21.91;74.03
73063;BME280;61230;46.328;19.972;2023-05-19T11:55:28;101087.56;;;21.93;73.39
73063;BME280;61230;46.328;19.972;2023-05-19T12:00:39;101079.28;;;22.28;71.81
73063;BME280;61230;46.328;19.972;2023-05-19T12:03:08;101082.41;;;22.39;71.64
73063;BME280;61230;46.328;19.972;2023-05-19T12:05:41;101046.78;;;22.58;70.66
73063;BME280;61230;46.328;19.972;2023-05-19T12:08:11;101084.31;;;22.45;73.31
73063;BME280;61230;46.328;19.972;2023-05-19T12:10:39;101090.06;;;22.48;70.78
73063;BME280;61230;46.328;19.972;2023-05-19T12:13:07;101079.34;;;22.42;70.98
73063;BME280;61230;46.328;19.972;2023-05-19T12:15:37;101077.78;;;22.73;70.00
73063;BME280;61230;46.328;19.972;2023-05-19T12:18:05;101080.03;;;22.09;71.50
73063;BME280;61230;46.328;19.972;2023-05-19T12:20:33;101070.47;;;21.66;72.77
73063;BME280;61230;46.328;19.972;2023-05-19T12:23:03;101039.31;;;21.03;76.25
73063;BME280;61230;46.328;19.972;2023-05-19T12:25:31;101065.28;;;21.58;75.14
73063;BME280;61230;46.328;19.972;2023-05-19T12:28:00;101024.22;;;21.85;73.34
73063;BME280;61230;46.328;19.972;2023-05-19T12:30:31;101053.56;;;21.93;73.81
73063;BME280;61230;46.328;19.972;2023-05-19T12:33:01;101052.50;;;22.35;73.21
73063;BME280;61230;46.328;19.972;2023-05-19T12:35:30;101042.28;;;22.91;70.45
73063;BME280;61230;46.328;19.972;2023-05-19T12:38:03;101041.44;;;22.71;68.93
73063;BME280;61230;46.328;19.972;2023-05-19T12:40:34;101046.63;;;22.72;70.15
73063;BME280;61230;46.328;19.972;2023-05-19T12:43:03;101042.34;;;22.24;69.76
73063;BME280;61230;46.328;19.972;2023-05-19T12:45:35;101045.50;;;22.41;69.05
73063;BME280;61230;46.328;19.972;2023-05-19T12:48:04;101022.12;;;22.21;68.72
73063;BME280;61230;46.328;19.972;2023-05-19T12:50:33;101026.94;;;22.39;69.44
73063;BME280;61230;46.328;19.972;2023-05-19T12:53:01;101026.19;;;22.91;69.32
73063;BME280;61230;46.328;19.972;2023-05-19T12:55:29;101024.94;;;23.53;67.90
73063;BME280;61230;46.328;19.972;2023-05-19T12:57:57;101015.47;;;23.04;68.75
73063;BME280;61230;46.328;19.972;2023-05-19T13:00:25;101019.13;;;23.36;68.23
73063;BME280;61230;46.328;19.972;2023-05-19T13:03:03;101003.50;;;22.87;64.85
73063;BME280;61230;46.328;19.972;2023-05-19T13:05:35;101017.09;;;23.31;65.99
73063;BME280;61230;46.328;19.972;2023-05-19T13:08:08;100983.00;;;23.25;64.13
73063;BME280;61230;46.328;19.972;2023-05-19T13:10:37;101011.31;;;23.41;65.09
73063;BME280;61230;46.328;19.972;2023-05-19T13:13:06;101012.31;;;23.33;66.04